sensor_id;sensor_type;location;lat;lon;timestamp;P1;durP1;ratioP1;P2;durP2;ratioP2
14474;SDS011;7323;50.848;4.334;2022-09-27T00:00:23;3.70;;;1.30;;
14474;SDS011;7323;50.848;4.334;2022-09-27T00:02:49;4.87;;;1.53;;
14474;SDS011;7323;50.848;4.334;2022-09-27T00:05:15;4.87;;;1.30;;
14474;SDS011;7323;50.848;4.334;2022-09-27T00:07:42;3.33;;;1.37;;
14474;SDS011;7323;50.848;4.334;2022-09-27T00:10:09;6.37;;;1.60;;
14474;SDS011;7323;50.848;4.334;2022-09-27T00:12:35;4.87;;;1.47;;
14474;SDS011;7323;50.848;4.334;2022-09-27T00:15:01;2.93;;;1.07;;
14474;SDS011;7323;50.848;4.334;2022-09-27T00:17:27;3.23;;;1.20;;
14474;SDS011;7323;50.848;4.334;2022-09-27T00:19:53;4.33;;;1.30;;
14474;SDS011;7323;50.848;4.334;2022-09-27T00:22:22;5.43;;;1.73;;
14474;SDS011;7323;50.848;4.334;2022-09-27T00:24:48;4.03;;;1.30;;
14474;SDS011;7323;50.848;4.334;2022-09-27T00:27:14;4.10;;;1.37;;
14474;SDS011;7323;50.848;4.334;2022-09-27T00:29:44;4.90;;;1.27;;
14474;SDS011;7323;50.848;4.334;2022-09-27T00:34:42;4.43;;;1.40;;
14474;SDS011;7323;50.848;4.334;2022-09-27T00:37:21;3.30;;;1.20;;
14474;SDS011;7323;50.848;4.334;2022-09-27T00:39:49;7.43;;;1.30;;
14474;SDS011;7323;50.848;4.334;2022-09-27T00:48:28;4.77;;;1.20;;
14474;SDS011;7323;50.848;4.334;2022-09-27T00:51:03;5.07;;;1.23;;
14474;SDS011;7323;50.848;4.334;2022-09-27T00:53:47;3.03;;;1.00;;
14474;SDS011;7323;50.848;4.334;2022-09-27T00:56:19;4.80;;;1.10;;
14474;SDS011;7323;50.848;4.334;2022-09-27T00:58:58;3.27;;;0.90;;
14474;SDS011;7323;50.848;4.334;2022-09-27T01:01:33;4.60;;;1.17;;
14474;SDS011;7323;50.848;4.334;2022-09-27T01:04:10;3.73;;;1.20;;
14474;SDS011;7323;50.848;4.334;2022-09-27T01:06:38;3.07;;;1.20;;
14474;SDS011;7323;50.848;4.334;2022-09-27T01:09:04;4.00;;;1.30;;
14474;SDS011;7323;50.848;4.334;2022-09-27T01:11:53;4.03;;;1.20;;
14474;SDS011;7323;50.848;4.334;2022-09-27T01:35:35;4.00;;;1.10;;
14474;SDS011;7323;50.848;4.334;2022-09-27T01:41:02;6.87;;;1.30;;
14474;SDS011;7323;50.848;4.334;2022-09-27T01:43:37;3.97;;;1.27;;
14474;SDS011;7323;50.848;4.334;2022-09-27T01:46:14;4.77;;;1.37;;
14474;SDS011;7323;50.848;4.334;2022-09-27T01:48:46;3.07;;;1.40;;
14474;SDS011;7323;50.848;4.334;2022-09-27T01:51:18;3.63;;;1.20;;
14474;SDS011;7323;50.848;4.334;2022-09-27T01:53:49;3.27;;;1.30;;
14474;SDS011;7323;50.848;4.334;2022-09-27T01:56:20;4.63;;;1.27;;
14474;SDS011;7323;50.848;4.334;2022-09-27T01:58:58;4.40;;;1.43;;
14474;SDS011;7323;50.848;4.334;2022-09-27T02:01:33;2.43;;;1.23;;
14474;SDS011;7323;50.848;4.334;2022-09-27T02:04:04;3.90;;;1.40;;
14474;SDS011;7323;50.848;4.334;2022-09-27T02:06:35;6.43;;;1.50;;
14474;SDS011;7323;50.848;4.334;2022-09-27T02:09:14;3.93;;;1.53;;
14474;SDS011;7323;50.848;4.334;2022-09-27T02:11:54;6.10;;;1.37;;
14474;SDS011;7323;50.848;4.334;2022-09-27T02:14:26;3.10;;;1.50;;
14474;SDS011;7323;50.848;4.334;2022-09-27T02:20:07;2.50;;;1.20;;
14474;SDS011;7323;50.848;4.334;2022-09-27T02:22:56;3.37;;;1.30;;
14474;SDS011;7323;50.848;4.334;2022-09-27T02:25:45;6.40;;;1.60;;
14474;SDS011;7323;50.848;4.334;2022-09-27T02:30:57;5.50;;;1.40;;
14474;SDS011;7323;50.848;4.334;2022-09-27T02:33:24;3.83;;;1.60;;
14474;SDS011;7323;50.848;4.334;2022-09-27T02:35:57;2.70;;;1.50;;
14474;SDS011;7323;50.848;4.334;2022-09-27T02:38:23;4.43;;;1.60;;
14474;SDS011;7323;50.848;4.334;2022-09-27T02:40:51;6.43;;;1.60;;
14474;SDS011;7323;50.848;4.334;2022-09-27T02:43:17;5.30;;;1.40;;
14474;SDS011;7323;50.848;4.334;2022-09-27T02:54:22;3.33;;;1.23;;
14474;SDS011;7323;50.848;4.334;2022-09-27T03:00:09;5.27;;;1.30;;
14474;SDS011;7323;50.848;4.334;2022-09-27T03:02:35;4.10;;;1.37;;
14474;SDS011;7323;50.848;4.334;2022-09-27T03:05:10;4.67;;;1.90;;
14474;SDS011;7323;50.848;4.334;2022-09-27T03:07:41;3.53;;;1.43;;
14474;SDS011;7323;50.848;4.334;2022-09-27T03:13:02;5.80;;;1.53;;
14474;SDS011;7323;50.848;4.334;2022-09-27T03:15:29;5.27;;;1.77;;
14474;SDS011;7323;50.848;4.334;2022-09-27T03:17:54;3.70;;;1.70;;
14474;SDS011;7323;50.848;4.334;2022-09-27T03:20:20;4.70;;;1.70;;
14474;SDS011;7323;50.848;4.334;2022-09-27T03:22:46;4.77;;;1.63;;
14474;SDS011;7323;50.848;4.334;2022-09-27T03:25:15;5.73;;;1.60;;
14474;SDS011;7323;50.848;4.334;2022-09-27T03:27:42;3.87;;;1.40;;
14474;SDS011;7323;50.848;4.334;2022-09-27T03:30:19;3.63;;;1.50;;
14474;SDS011;7323;50.848;4.334;2022-09-27T03:32:45;6.07;;;1.70;;
14474;SDS011;7323;50.848;4.334;2022-09-27T03:35:11;4.80;;;1.70;;
14474;SDS011;7323;50.848;4.334;2022-09-27T03:37:39;7.37;;;1.83;;
14474;SDS011;7323;50.848;4.334;2022-09-27T03:40:05;3.83;;;1.90;;
14474;SDS011;7323;50.848;4.334;2022-09-27T03:42:32;5.17;;;1.67;;
14474;SDS011;7323;50.848;4.334;2022-09-27T03:45:00;5.13;;;1.50;;
14474;SDS011;7323;50.848;4.334;2022-09-27T03:47:25;4.57;;;1.40;;
14474;SDS011;7323;50.848;4.334;2022-09-27T03:49:51;3.50;;;1.70;;
14474;SDS011;7323;50.848;4.334;2022-09-27T03:52:17;2.73;;;1.30;;
14474;SDS011;7323;50.848;4.334;2022-09-27T03:54:45;6.50;;;1.30;;
14474;SDS011;7323;50.848;4.334;2022-09-27T03:57:12;4.67;;;1.40;;
14474;SDS011;7323;50.848;4.334;2022-09-27T03:59:39;6.57;;;1.87;;
14474;SDS011;7323;50.848;4.334;2022-09-27T04:07:17;4.60;;;1.70;;
14474;SDS011;7323;50.848;4.334;2022-09-27T04:09:43;4.90;;;1.90;;
14474;SDS011;7323;50.848;4.334;2022-09-27T04:12:11;4.33;;;1.80;;
14474;SDS011;7323;50.848;4.334;2022-09-27T04:14:40;4.67;;;1.90;;
14474;SDS011;7323;50.848;4.334;2022-09-27T04:17:06;8.37;;;2.33;;
14474;SDS011;7323;50.848;4.334;2022-09-27T04:19:32;4.60;;;2.10;;
14474;SDS011;7323;50.848;4.334;2022-09-27T04:21:57;4.10;;;1.90;;
14474;SDS011;7323;50.848;4.334;2022-09-27T04:24:23;4.03;;;1.80;;
14474;SDS011;7323;50.848;4.334;2022-09-27T04:26:56;3.93;;;2.00;;
14474;SDS011;7323;50.848;4.334;2022-09-27T04:29:22;4.20;;;1.87;;
14474;SDS011;7323;50.848;4.334;2022-09-27T04:31:53;4.20;;;2.00;;
14474;SDS011;7323;50.848;4.334;2022-09-27T04:37:41;4.97;;;2.83;;
14474;SDS011;7323;50.848;4.334;2022-09-27T04:40:09;4.63;;;3.10;;
14474;SDS011;7323;50.848;4.334;2022-09-27T04:42:34;6.33;;;3.23;;
14474;SDS011;7323;50.848;4.334;2022-09-27T04:45:00;5.93;;;5.03;;
14474;SDS011;7323;50.848;4.334;2022-09-27T04:47:26;4.50;;;3.33;;
14474;SDS011;7323;50.848;4.334;2022-09-27T04:49:53;7.43;;;4.07;;
14474;SDS011;7323;50.848;4.334;2022-09-27T04:52:25;7.73;;;3.77;;
14474;SDS011;7323;50.848;4.334;2022-09-27T04:54:53;5.53;;;3.97;;
14474;SDS011;7323;50.848;4.334;2022-09-27T04:57:21;5.17;;;3.43;;
14474;SDS011;7323;50.848;4.334;2022-09-27T04:59:47;6.77;;;3.80;;
14474;SDS011;7323;50.848;4.334;2022-09-27T05:02:15;6.90;;;4.10;;
14474;SDS011;7323;50.848;4.334;2022-09-27T05:04:40;7.13;;;3.90;;
14474;SDS011;7323;50.848;4.334;2022-09-27T05:07:06;5.57;;;3.47;;
14474;SDS011;7323;50.848;4.334;2022-09-27T05:09:32;4.27;;;3.03;;
14474;SDS011;7323;50.848;4.334;2022-09-27T05:11:57;4.10;;;2.97;;
14474;SDS011;7323;50.848;4.334;2022-09-27T05:14:24;4.67;;;3.03;;
14474;SDS011;7323;50.848;4.334;2022-09-27T05:16:51;6.03;;;2.97;;
14474;SDS011;7323;50.848;4.334;2022-09-27T05:19:18;4.00;;;2.60;;
14474;SDS011;7323;50.848;4.334;2022-09-27T05:21:48;5.10;;;3.10;;
14474;SDS011;7323;50.848;4.334;2022-09-27T05:24:17;5.67;;;2.50;;
14474;SDS011;7323;50.848;4.334;2022-09-27T05:26:51;4.50;;;2.93;;
14474;SDS011;7323;50.848;4.334;2022-09-27T05:29:17;5.10;;;2.80;;
14474;SDS011;7323;50.848;4.334;2022-09-27T05:31:49;5.47;;;2.97;;
14474;SDS011;7323;50.848;4.334;2022-09-27T05:34:25;5.40;;;2.80;;
14474;SDS011;7323;50.848;4.334;2022-09-27T05:36:59;4.83;;;3.50;;
14474;SDS011;7323;50.848;4.334;2022-09-27T05:39:31;4.43;;;3.10;;
14474;SDS011;7323;50.848;4.334;2022-09-27T05:42:21;4.70;;;3.00;;
14474;SDS011;7323;50.848;4.334;2022-09-27T05:44:51;4.47;;;3.13;;
14474;SDS011;7323;50.848;4.334;2022-09-27T05:47:17;6.97;;;3.33;;
14474;SDS011;7323;50.848;4.334;2022-09-27T05:49:52;4.60;;;3.07;;
14474;SDS011;7323;50.848;4.334;2022-09-27T05:52:19;5.63;;;3.10;;
14474;SDS011;7323;50.848;4.334;2022-09-27T05:54:49;5.07;;;3.20;;
14474;SDS011;7323;50.848;4.334;2022-09-27T05:57:22;5.63;;;3.10;;
14474;SDS011;7323;50.848;4.334;2022-09-27T06:00:01;5.70;;;2.80;;
14474;SDS011;7323;50.848;4.334;2022-09-27T06:02:29;5.77;;;3.07;;
14474;SDS011;7323;50.848;4.334;2022-09-27T06:04:56;4.80;;;2.57;;
14474;SDS011;7323;50.848;4.334;2022-09-27T06:07:23;7.60;;;2.97;;
14474;SDS011;7323;50.848;4.334;2022-09-27T06:09:54;5.67;;;2.63;;
14474;SDS011;7323;50.848;4.334;2022-09-27T06:12:26;5.00;;;2.47;;
14474;SDS011;7323;50.848;4.334;2022-09-27T06:15:01;3.60;;;2.50;;
14474;SDS011;7323;50.848;4.334;2022-09-27T06:17:35;4.47;;;2.43;;
14474;SDS011;7323;50.848;4.334;2022-09-27T06:20:01;4.90;;;2.40;;
14474;SDS011;7323;50.848;4.334;2022-09-27T06:22:28;4.50;;;2.33;;
14474;SDS011;7323;50.848;4.334;2022-09-27T06:24:54;3.80;;;2.77;;
14474;SDS011;7323;50.848;4.334;2022-09-27T06:27:20;6.57;;;2.77;;
14474;SDS011;7323;50.848;4.334;2022-09-27T06:29:57;6.67;;;3.87;;
14474;SDS011;7323;50.848;4.334;2022-09-27T06:32:26;3.23;;;2.40;;
14474;SDS011;7323;50.848;4.334;2022-09-27T06:34:51;5.13;;;3.20;;
14474;SDS011;7323;50.848;4.334;2022-09-27T06:37:17;4.93;;;2.30;;
14474;SDS011;7323;50.848;4.334;2022-09-27T06:39:42;5.67;;;2.50;;
14474;SDS011;7323;50.848;4.334;2022-09-27T06:42:08;4.53;;;2.37;;
14474;SDS011;7323;50.848;4.334;2022-09-27T06:44:35;6.77;;;2.70;;
14474;SDS011;7323;50.848;4.334;2022-09-27T06:47:01;4.57;;;2.70;;
14474;SDS011;7323;50.848;4.334;2022-09-27T06:49:26;6.70;;;2.90;;
14474;SDS011;7323;50.848;4.334;2022-09-27T06:51:53;7.83;;;3.10;;
14474;SDS011;7323;50.848;4.334;2022-09-27T06:54:19;7.07;;;2.90;;
14474;SDS011;7323;50.848;4.334;2022-09-27T06:56:49;5.70;;;3.40;;
14474;SDS011;7323;50.848;4.334;2022-09-27T06:59:14;6.90;;;2.93;;
14474;SDS011;7323;50.848;4.334;2022-09-27T07:01:59;6.50;;;2.93;;
14474;SDS011;7323;50.848;4.334;2022-09-27T07:04:28;5.87;;;2.90;;
14474;SDS011;7323;50.848;4.334;2022-09-27T07:07:00;5.30;;;2.70;;
14474;SDS011;7323;50.848;4.334;2022-09-27T07:09:25;7.43;;;3.47;;
14474;SDS011;7323;50.848;4.334;2022-09-27T07:11:51;6.00;;;3.63;;
14474;SDS011;7323;50.848;4.334;2022-09-27T07:14:19;5.37;;;3.67;;
14474;SDS011;7323;50.848;4.334;2022-09-27T07:16:45;4.70;;;3.30;;
14474;SDS011;7323;50.848;4.334;2022-09-27T07:19:11;4.90;;;3.20;;
14474;SDS011;7323;50.848;4.334;2022-09-27T07:21:38;5.47;;;3.20;;
14474;SDS011;7323;50.848;4.334;2022-09-27T07:24:04;5.23;;;3.23;;
14474;SDS011;7323;50.848;4.334;2022-09-27T07:26:35;5.47;;;3.10;;
14474;SDS011;7323;50.848;4.334;2022-09-27T07:29:04;5.03;;;3.40;;
14474;SDS011;7323;50.848;4.334;2022-09-27T07:31:29;4.63;;;3.20;;
14474;SDS011;7323;50.848;4.334;2022-09-27T07:33:55;6.43;;;3.40;;
14474;SDS011;7323;50.848;4.334;2022-09-27T07:36:22;6.67;;;3.27;;
14474;SDS011;7323;50.848;4.334;2022-09-27T07:38:47;5.57;;;3.70;;
14474;SDS011;7323;50.848;4.334;2022-09-27T07:41:13;5.27;;;3.40;;
14474;SDS011;7323;50.848;4.334;2022-09-27T07:43:40;7.87;;;3.07;;
14474;SDS011;7323;50.848;4.334;2022-09-27T07:46:11;8.10;;;4.20;;
14474;SDS011;7323;50.848;4.334;2022-09-27T07:48:37;4.33;;;3.43;;
14474;SDS011;7323;50.848;4.334;2022-09-27T07:51:03;6.03;;;3.57;;
14474;SDS011;7323;50.848;4.334;2022-09-27T07:53:32;6.57;;;3.33;;
14474;SDS011;7323;50.848;4.334;2022-09-27T07:55:58;4.90;;;3.17;;
14474;SDS011;7323;50.848;4.334;2022-09-27T07:58:25;5.93;;;2.80;;
14474;SDS011;7323;50.848;4.334;2022-09-27T08:00:50;5.20;;;3.37;;
14474;SDS011;7323;50.848;4.334;2022-09-27T08:03:19;5.23;;;3.03;;
14474;SDS011;7323;50.848;4.334;2022-09-27T08:05:46;7.53;;;3.53;;
14474;SDS011;7323;50.848;4.334;2022-09-27T08:08:12;9.17;;;3.43;;
14474;SDS011;7323;50.848;4.334;2022-09-27T08:10:41;7.27;;;2.90;;
14474;SDS011;7323;50.848;4.334;2022-09-27T08:13:15;3.50;;;3.00;;
14474;SDS011;7323;50.848;4.334;2022-09-27T08:15:44;6.73;;;2.93;;
14474;SDS011;7323;50.848;4.334;2022-09-27T08:18:11;5.57;;;3.00;;
14474;SDS011;7323;50.848;4.334;2022-09-27T08:20:38;4.87;;;2.53;;
14474;SDS011;7323;50.848;4.334;2022-09-27T08:23:04;7.23;;;3.10;;
14474;SDS011;7323;50.848;4.334;2022-09-27T08:28:25;4.67;;;2.20;;
14474;SDS011;7323;50.848;4.334;2022-09-27T08:30:56;3.60;;;1.97;;
14474;SDS011;7323;50.848;4.334;2022-09-27T08:33:23;4.77;;;2.10;;
14474;SDS011;7323;50.848;4.334;2022-09-27T08:35:51;3.13;;;2.13;;
14474;SDS011;7323;50.848;4.334;2022-09-27T08:38:20;5.30;;;1.90;;
14474;SDS011;7323;50.848;4.334;2022-09-27T08:40:54;7.23;;;2.20;;
14474;SDS011;7323;50.848;4.334;2022-09-27T08:49:04;4.27;;;1.80;;
14474;SDS011;7323;50.848;4.334;2022-09-27T08:51:36;4.87;;;2.30;;
14474;SDS011;7323;50.848;4.334;2022-09-27T08:54:05;4.70;;;2.30;;
14474;SDS011;7323;50.848;4.334;2022-09-27T08:56:38;4.20;;;2.33;;
14474;SDS011;7323;50.848;4.334;2022-09-27T08:59:14;6.07;;;3.13;;
14474;SDS011;7323;50.848;4.334;2022-09-27T09:01:48;5.53;;;2.17;;
14474;SDS011;7323;50.848;4.334;2022-09-27T09:04:25;4.80;;;2.10;;
14474;SDS011;7323;50.848;4.334;2022-09-27T09:07:01;4.90;;;2.10;;
14474;SDS011;7323;50.848;4.334;2022-09-27T09:09:39;5.47;;;1.87;;
14474;SDS011;7323;50.848;4.334;2022-09-27T09:12:32;3.27;;;1.90;;
14474;SDS011;7323;50.848;4.334;2022-09-27T09:27:04;7.93;;;3.63;;
14474;SDS011;7323;50.848;4.334;2022-09-27T09:35:42;5.90;;;2.40;;
14474;SDS011;7323;50.848;4.334;2022-09-27T09:38:17;4.30;;;2.23;;
14474;SDS011;7323;50.848;4.334;2022-09-27T09:40:54;6.07;;;2.53;;
14474;SDS011;7323;50.848;4.334;2022-09-27T09:43:27;4.60;;;2.00;;
14474;SDS011;7323;50.848;4.334;2022-09-27T09:46:07;5.07;;;2.00;;
14474;SDS011;7323;50.848;4.334;2022-09-27T09:51:16;4.53;;;2.40;;
14474;SDS011;7323;50.848;4.334;2022-09-27T09:56:28;3.53;;;1.60;;
14474;SDS011;7323;50.848;4.334;2022-09-27T10:02:12;4.33;;;1.70;;
14474;SDS011;7323;50.848;4.334;2022-09-27T10:04:51;7.57;;;2.00;;
14474;SDS011;7323;50.848;4.334;2022-09-27T10:07:19;4.77;;;2.00;;
14474;SDS011;7323;50.848;4.334;2022-09-27T10:12:43;8.67;;;2.50;;
14474;SDS011;7323;50.848;4.334;2022-09-27T10:15:21;5.50;;;2.17;;
14474;SDS011;7323;50.848;4.334;2022-09-27T10:17:53;7.17;;;1.90;;
14474;SDS011;7323;50.848;4.334;2022-09-27T10:20:36;5.53;;;1.83;;
14474;SDS011;7323;50.848;4.334;2022-09-27T10:23:13;7.53;;;2.10;;
14474;SDS011;7323;50.848;4.334;2022-09-27T10:25:49;8.07;;;2.70;;
14474;SDS011;7323;50.848;4.334;2022-09-27T10:28:37;7.53;;;2.43;;
14474;SDS011;7323;50.848;4.334;2022-09-27T10:36:34;8.07;;;2.60;;
14474;SDS011;7323;50.848;4.334;2022-09-27T10:39:09;6.20;;;2.30;;
14474;SDS011;7323;50.848;4.334;2022-09-27T10:41:59;6.77;;;2.53;;
14474;SDS011;7323;50.848;4.334;2022-09-27T10:44:49;6.20;;;2.17;;
14474;SDS011;7323;50.848;4.334;2022-09-27T10:47:20;7.00;;;2.53;;
14474;SDS011;7323;50.848;4.334;2022-09-27T10:49:48;6.57;;;2.40;;
14474;SDS011;7323;50.848;4.334;2022-09-27T10:52:21;8.10;;;2.80;;
14474;SDS011;7323;50.848;4.334;2022-09-27T10:57:25;8.10;;;2.40;;
14474;SDS011;7323;50.848;4.334;2022-09-27T10:59:56;9.97;;;3.30;;
14474;SDS011;7323;50.848;4.334;2022-09-27T11:02:50;10.47;;;2.97;;
14474;SDS011;7323;50.848;4.334;2022-09-27T11:07:58;3.90;;;1.57;;
14474;SDS011;7323;50.848;4.334;2022-09-27T11:10:32;4.33;;;1.43;;
14474;SDS011;7323;50.848;4.334;2022-09-27T11:18:53;4.13;;;1.33;;
14474;SDS011;7323;50.848;4.334;2022-09-27T11:21:35;2.80;;;0.93;;
14474;SDS011;7323;50.848;4.334;2022-09-27T11:30:01;2.00;;;0.90;;
14474;SDS011;7323;50.848;4.334;2022-09-27T11:32:38;4.20;;;1.30;;
14474;SDS011;7323;50.848;4.334;2022-09-27T11:35:58;4.73;;;1.27;;
14474;SDS011;7323;50.848;4.334;2022-09-27T11:41:03;3.43;;;1.20;;
14474;SDS011;7323;50.848;4.334;2022-09-27T11:46:23;3.03;;;0.90;;
14474;SDS011;7323;50.848;4.334;2022-09-27T11:57:54;5.47;;;1.40;;
14474;SDS011;7323;50.848;4.334;2022-09-27T12:06:00;8.03;;;1.40;;
14474;SDS011;7323;50.848;4.334;2022-09-27T12:14:08;3.30;;;1.20;;
14474;SDS011;7323;50.848;4.334;2022-09-27T12:16:38;5.30;;;1.20;;
14474;SDS011;7323;50.848;4.334;2022-09-27T12:19:08;4.27;;;1.23;;
14474;SDS011;7323;50.848;4.334;2022-09-27T12:21:45;3.47;;;1.50;;
14474;SDS011;7323;50.848;4.334;2022-09-27T12:24:17;6.27;;;1.60;;
14474;SDS011;7323;50.848;4.334;2022-09-27T12:26:52;3.40;;;1.27;;
14474;SDS011;7323;50.848;4.334;2022-09-27T12:29:27;3.90;;;1.60;;
14474;SDS011;7323;50.848;4.334;2022-09-27T12:32:01;4.53;;;1.53;;
14474;SDS011;7323;50.848;4.334;2022-09-27T12:37:34;4.03;;;1.37;;
14474;SDS011;7323;50.848;4.334;2022-09-27T12:43:05;4.80;;;1.50;;
14474;SDS011;7323;50.848;4.334;2022-09-27T12:48:30;4.57;;;1.80;;
14474;SDS011;7323;50.848;4.334;2022-09-27T12:51:20;5.43;;;1.60;;
14474;SDS011;7323;50.848;4.334;2022-09-27T12:57:01;3.10;;;1.40;;
14474;SDS011;7323;50.848;4.334;2022-09-27T13:11:22;2.53;;;0.80;;
14474;SDS011;7323;50.848;4.334;2022-09-27T13:13:59;2.63;;;1.10;;
14474;SDS011;7323;50.848;4.334;2022-09-27T13:16:27;3.67;;;1.00;;
14474;SDS011;7323;50.848;4.334;2022-09-27T13:18:54;2.73;;;1.17;;
14474;SDS011;7323;50.848;4.334;2022-09-27T13:35:34;4.50;;;1.43;;
14474;SDS011;7323;50.848;4.334;2022-09-27T13:38:01;5.20;;;1.40;;
14474;SDS011;7323;50.848;4.334;2022-09-27T13:46:01;5.07;;;1.70;;
14474;SDS011;7323;50.848;4.334;2022-09-27T13:49:02;7.63;;;1.70;;
14474;SDS011;7323;50.848;4.334;2022-09-27T13:51:53;5.60;;;1.50;;
14474;SDS011;7323;50.848;4.334;2022-09-27T14:00:26;6.17;;;2.07;;
14474;SDS011;7323;50.848;4.334;2022-09-27T14:03:03;5.97;;;1.70;;
14474;SDS011;7323;50.848;4.334;2022-09-27T14:05:38;5.47;;;1.43;;
14474;SDS011;7323;50.848;4.334;2022-09-27T14:08:13;7.83;;;2.10;;
14474;SDS011;7323;50.848;4.334;2022-09-27T14:11:10;4.87;;;1.77;;
14474;SDS011;7323;50.848;4.334;2022-09-27T14:13:48;4.20;;;1.57;;
14474;SDS011;7323;50.848;4.334;2022-09-27T14:16:16;8.37;;;2.30;;
14474;SDS011;7323;50.848;4.334;2022-09-27T14:18:45;5.77;;;1.73;;
14474;SDS011;7323;50.848;4.334;2022-09-27T14:21:33;6.13;;;2.23;;
14474;SDS011;7323;50.848;4.334;2022-09-27T14:29:43;10.93;;;2.20;;
14474;SDS011;7323;50.848;4.334;2022-09-27T14:32:27;7.07;;;2.00;;
14474;SDS011;7323;50.848;4.334;2022-09-27T14:35:12;7.13;;;2.07;;
14474;SDS011;7323;50.848;4.334;2022-09-27T14:38:05;6.37;;;1.70;;
14474;SDS011;7323;50.848;4.334;2022-09-27T14:40:41;4.53;;;1.33;;
14474;SDS011;7323;50.848;4.334;2022-09-27T14:43:16;6.40;;;2.07;;
14474;SDS011;7323;50.848;4.334;2022-09-27T14:45:45;5.23;;;2.20;;
14474;SDS011;7323;50.848;4.334;2022-09-27T14:48:25;7.23;;;2.10;;
14474;SDS011;7323;50.848;4.334;2022-09-27T14:51:16;10.60;;;2.10;;
14474;SDS011;7323;50.848;4.334;2022-09-27T14:53:50;6.80;;;1.70;;
14474;SDS011;7323;50.848;4.334;2022-09-27T14:56:25;4.67;;;2.17;;
14474;SDS011;7323;50.848;4.334;2022-09-27T14:58:58;7.37;;;1.70;;
14474;SDS011;7323;50.848;4.334;2022-09-27T15:01:51;4.67;;;1.90;;
14474;SDS011;7323;50.848;4.334;2022-09-27T15:04:19;5.30;;;1.60;;
14474;SDS011;7323;50.848;4.334;2022-09-27T15:07:05;8.20;;;1.87;;
14474;SDS011;7323;50.848;4.334;2022-09-27T15:09:31;4.37;;;1.60;;
14474;SDS011;7323;50.848;4.334;2022-09-27T15:11:58;4.30;;;1.47;;
14474;SDS011;7323;50.848;4.334;2022-09-27T15:14:27;3.20;;;1.10;;
14474;SDS011;7323;50.848;4.334;2022-09-27T15:20:14;3.77;;;1.47;;
14474;SDS011;7323;50.848;4.334;2022-09-27T15:22:53;7.27;;;1.97;;
14474;SDS011;7323;50.848;4.334;2022-09-27T15:25:32;6.00;;;1.60;;
14474;SDS011;7323;50.848;4.334;2022-09-27T15:28:05;7.63;;;1.90;;
14474;SDS011;7323;50.848;4.334;2022-09-27T15:30:36;4.50;;;1.73;;
14474;SDS011;7323;50.848;4.334;2022-09-27T15:33:15;3.63;;;1.43;;
14474;SDS011;7323;50.848;4.334;2022-09-27T15:35:56;6.17;;;1.50;;
14474;SDS011;7323;50.848;4.334;2022-09-27T15:41:01;3.00;;;1.27;;
14474;SDS011;7323;50.848;4.334;2022-09-27T15:43:36;4.80;;;1.30;;
14474;SDS011;7323;50.848;4.334;2022-09-27T15:46:07;4.83;;;1.70;;
14474;SDS011;7323;50.848;4.334;2022-09-27T15:51:50;2.73;;;1.20;;
14474;SDS011;7323;50.848;4.334;2022-09-27T15:54:19;4.03;;;1.30;;
14474;SDS011;7323;50.848;4.334;2022-09-27T15:56:51;3.93;;;1.70;;
14474;SDS011;7323;50.848;4.334;2022-09-27T15:59:24;3.77;;;1.13;;
14474;SDS011;7323;50.848;4.334;2022-09-27T16:01:58;3.63;;;1.60;;
14474;SDS011;7323;50.848;4.334;2022-09-27T16:04:29;4.13;;;0.90;;
14474;SDS011;7323;50.848;4.334;2022-09-27T16:07:11;4.33;;;1.37;;
14474;SDS011;7323;50.848;4.334;2022-09-27T16:09:40;2.50;;;1.07;;
14474;SDS011;7323;50.848;4.334;2022-09-27T16:12:05;3.33;;;1.20;;
14474;SDS011;7323;50.848;4.334;2022-09-27T16:14:32;3.60;;;1.07;;
14474;SDS011;7323;50.848;4.334;2022-09-27T16:16:58;5.83;;;1.83;;
14474;SDS011;7323;50.848;4.334;2022-09-27T16:19:24;5.03;;;1.57;;
14474;SDS011;7323;50.848;4.334;2022-09-27T16:21:50;4.37;;;1.80;;
14474;SDS011;7323;50.848;4.334;2022-09-27T16:24:22;5.93;;;1.73;;
14474;SDS011;7323;50.848;4.334;2022-09-27T16:29:19;3.53;;;1.40;;
14474;SDS011;7323;50.848;4.334;2022-09-27T16:32:15;4.43;;;2.10;;
14474;SDS011;7323;50.848;4.334;2022-09-27T16:34:41;5.57;;;1.80;;
14474;SDS011;7323;50.848;4.334;2022-09-27T16:37:10;4.00;;;1.60;;
14474;SDS011;7323;50.848;4.334;2022-09-27T16:44:56;5.00;;;1.80;;
14474;SDS011;7323;50.848;4.334;2022-09-27T16:47:34;4.00;;;1.70;;
14474;SDS011;7323;50.848;4.334;2022-09-27T16:50:04;6.13;;;2.20;;
14474;SDS011;7323;50.848;4.334;2022-09-27T16:52:51;4.47;;;1.80;;
14474;SDS011;7323;50.848;4.334;2022-09-27T16:55:20;4.97;;;1.90;;
14474;SDS011;7323;50.848;4.334;2022-09-27T17:00:23;4.60;;;2.03;;
14474;SDS011;7323;50.848;4.334;2022-09-27T17:02:51;5.97;;;1.93;;
14474;SDS011;7323;50.848;4.334;2022-09-27T17:05:17;7.57;;;1.80;;
14474;SDS011;7323;50.848;4.334;2022-09-27T17:07:48;8.40;;;2.00;;
14474;SDS011;7323;50.848;4.334;2022-09-27T17:10:16;7.10;;;2.03;;
14474;SDS011;7323;50.848;4.334;2022-09-27T17:12:44;5.63;;;1.73;;
14474;SDS011;7323;50.848;4.334;2022-09-27T17:15:11;4.97;;;1.97;;
14474;SDS011;7323;50.848;4.334;2022-09-27T17:17:37;5.47;;;1.63;;
14474;SDS011;7323;50.848;4.334;2022-09-27T17:20:04;5.63;;;2.00;;
14474;SDS011;7323;50.848;4.334;2022-09-27T17:22:30;5.63;;;2.10;;
14474;SDS011;7323;50.848;4.334;2022-09-27T17:24:56;5.67;;;2.40;;
14474;SDS011;7323;50.848;4.334;2022-09-27T17:27:26;6.40;;;2.30;;
14474;SDS011;7323;50.848;4.334;2022-09-27T17:29:53;6.57;;;1.97;;
14474;SDS011;7323;50.848;4.334;2022-09-27T17:32:21;5.90;;;2.10;;
14474;SDS011;7323;50.848;4.334;2022-09-27T17:34:51;7.30;;;2.43;;
14474;SDS011;7323;50.848;4.334;2022-09-27T17:37:17;8.10;;;2.90;;
14474;SDS011;7323;50.848;4.334;2022-09-27T17:39:44;7.33;;;2.70;;
14474;SDS011;7323;50.848;4.334;2022-09-27T17:42:10;6.07;;;2.60;;
14474;SDS011;7323;50.848;4.334;2022-09-27T17:44:36;4.70;;;2.20;;
14474;SDS011;7323;50.848;4.334;2022-09-27T17:47:02;8.47;;;2.80;;
14474;SDS011;7323;50.848;4.334;2022-09-27T17:49:46;7.27;;;2.50;;
14474;SDS011;7323;50.848;4.334;2022-09-27T17:52:31;8.10;;;1.90;;
14474;SDS011;7323;50.848;4.334;2022-09-27T17:54:59;8.73;;;2.90;;
14474;SDS011;7323;50.848;4.334;2022-09-27T17:57:25;8.33;;;3.40;;
14474;SDS011;7323;50.848;4.334;2022-09-27T17:59:51;7.40;;;2.33;;
14474;SDS011;7323;50.848;4.334;2022-09-27T18:02:18;6.50;;;2.20;;
14474;SDS011;7323;50.848;4.334;2022-09-27T18:04:45;5.17;;;1.90;;
14474;SDS011;7323;50.848;4.334;2022-09-27T18:07:14;3.10;;;1.57;;
14474;SDS011;7323;50.848;4.334;2022-09-27T18:09:44;4.23;;;1.63;;
14474;SDS011;7323;50.848;4.334;2022-09-27T18:12:23;4.17;;;1.97;;
14474;SDS011;7323;50.848;4.334;2022-09-27T18:15:02;7.37;;;3.53;;
14474;SDS011;7323;50.848;4.334;2022-09-27T18:17:37;5.60;;;2.10;;
14474;SDS011;7323;50.848;4.334;2022-09-27T18:20:04;3.47;;;1.60;;
14474;SDS011;7323;50.848;4.334;2022-09-27T18:23:08;4.30;;;2.63;;
14474;SDS011;7323;50.848;4.334;2022-09-27T18:25:34;4.90;;;2.10;;
14474;SDS011;7323;50.848;4.334;2022-09-27T18:28:07;3.77;;;2.40;;
14474;SDS011;7323;50.848;4.334;2022-09-27T18:39:38;5.27;;;3.10;;
14474;SDS011;7323;50.848;4.334;2022-09-27T18:42:04;5.83;;;3.20;;
14474;SDS011;7323;50.848;4.334;2022-09-27T18:44:34;4.00;;;1.90;;
14474;SDS011;7323;50.848;4.334;2022-09-27T18:47:02;3.50;;;2.17;;
14474;SDS011;7323;50.848;4.334;2022-09-27T18:51:57;4.97;;;2.23;;
14474;SDS011;7323;50.848;4.334;2022-09-27T18:54:25;4.10;;;1.93;;
14474;SDS011;7323;50.848;4.334;2022-09-27T18:57:09;3.13;;;1.63;;
14474;SDS011;7323;50.848;4.334;2022-09-27T18:59:37;3.97;;;2.10;;
14474;SDS011;7323;50.848;4.334;2022-09-27T19:02:05;5.53;;;1.90;;
14474;SDS011;7323;50.848;4.334;2022-09-27T19:04:31;4.23;;;2.10;;
14474;SDS011;7323;50.848;4.334;2022-09-27T19:07:09;4.43;;;2.10;;
14474;SDS011;7323;50.848;4.334;2022-09-27T19:10:11;5.30;;;2.37;;
14474;SDS011;7323;50.848;4.334;2022-09-27T19:13:00;3.80;;;2.20;;
14474;SDS011;7323;50.848;4.334;2022-09-27T19:16:02;4.23;;;2.00;;
14474;SDS011;7323;50.848;4.334;2022-09-27T19:40:17;5.73;;;2.50;;
14474;SDS011;7323;50.848;4.334;2022-09-27T19:49:07;5.23;;;2.90;;